Bookmark and Share
Track history (hours):
 

Listerhav

Last reported at 2014-Apr-21 04:16 UTC. Time now 2014-Apr-21 04:46 UTC.
Position N 60°01' E 026°38'.

Length 88 m; draft 6.1 m.

Type: Cargo ship. MMSI: 236591000.

NotesDate/timePositionNaut miles runAvg speedWind from/ knotsBaromVisibWave heightAir tempDewpointWater temp
2014-Apr-21 04:16N 60°01' E 026°38'108 9.9
2014-Apr-20 17:21N 59°54' E 030°13'1 1.4
2014-Apr-20 16:31N 59°55' E 030°14'0 0.0
2014-Apr-20 15:31N 59°55' E 030°14'0 0.0
2014-Apr-20 14:31N 59°55' E 030°14'0 0.0
2014-Apr-20 13:31N 59°55' E 030°14'0 0.0
2014-Apr-20 12:31N 59°55' E 030°14'0 0.0
2014-Apr-20 11:31N 59°55' E 030°14'0 0.0
2014-Apr-20 10:28N 59°55' E 030°14'0 0.0
2014-Apr-20 09:31N 59°55' E 030°14'0 0.0
2014-Apr-20 08:28N 59°55' E 030°14'0 0.0
2014-Apr-20 07:28N 59°55' E 030°14'0 0.0
2014-Apr-20 06:31N 59°55' E 030°14'0 0.0
2014-Apr-20 05:31N 59°55' E 030°14'0 0.0
2014-Apr-20 04:31N 59°55' E 030°14'0 0.0
2014-Apr-20 03:31N 59°55' E 030°14'0 0.0
2014-Apr-20 02:31N 59°55' E 030°14'0 0.0
2014-Apr-20 01:31N 59°55' E 030°14'0 0.0
2014-Apr-20 00:31N 59°55' E 030°14'0 0.0
2014-Apr-19 23:28N 59°55' E 030°14'1 0.0
2014-Apr-18 14:22N 59°53' E 030°13'0 0.0
2014-Apr-18 05:24N 59°53' E 030°13'0 0.0
2014-Apr-18 04:24N 59°53' E 030°13'0 0.0
2014-Apr-18 03:33N 59°53' E 030°13'0 0.0
2014-Apr-18 02:34N 59°53' E 030°13'102 8.2
2014-Apr-17 14:12N 59°59' E 026°50'911.2
2014-Apr-17 13:23N 59°58' E 026°32'5611.5
2014-Apr-17 08:33N 59°43' E 024°45'3511.7
2014-Apr-17 05:33N 59°28' E 023°43'31211.4
2014-Apr-16 02:06N 55°50' E 016°46'5211.2
2014-Apr-15 21:30N 55°09' E 015°51'6911.1
2014-Apr-15 15:16N 54°15' E 014°36'811.0
2014-Apr-15 14:34N 54°09' E 014°28'11 5.5
2014-Apr-15 12:34N 54°00' E 014°16'7 6.6
2014-Apr-15 11:34N 53°54' E 014°16'0 0.0
2014-Apr-15 10:34N 53°54' E 014°16'0 0.0
2014-Apr-15 09:34N 53°54' E 014°16'0 0.0
2014-Apr-15 08:34N 53°54' E 014°16'0 0.0
2014-Apr-15 07:34N 53°54' E 014°16'0 0.0
2014-Apr-15 06:34N 53°54' E 014°16'0 0.0
2014-Apr-15 05:34N 53°54' E 014°16'0 0.0
2014-Apr-15 03:34N 53°54' E 014°16'0 0.0
2014-Apr-15 02:34N 53°54' E 014°16'0 0.0
2014-Apr-15 01:34N 53°54' E 014°16'0 0.0
2014-Apr-15 00:34N 53°54' E 014°16'0 0.0
2014-Apr-14 23:34N 53°54' E 014°16'0 0.0
2014-Apr-14 22:34N 53°54' E 014°16'0 0.0
2014-Apr-14 21:34N 53°54' E 014°16'0 0.0
2014-Apr-14 20:34N 53°54' E 014°16'0 0.0
2014-Apr-14 19:34N 53°54' E 014°16'0 0.0
2014-Apr-14 18:34N 53°54' E 014°16'0 0.0
2014-Apr-14 17:34N 53°54' E 014°16'0 0.0
2014-Apr-14 16:34N 53°54' E 014°16'0 0.0
2014-Apr-14 15:33N 53°54' E 014°16'0 0.0
2014-Apr-14 14:34N 53°54' E 014°16'0 0.0
2014-Apr-14 13:34N 53°54' E 014°16'0 0.0
2014-Apr-14 11:34N 53°54' E 014°16'0 0.0
2014-Apr-14 10:34N 53°54' E 014°16'0 0.0
2014-Apr-14 09:34N 53°54' E 014°16'0 0.0
2014-Apr-14 08:34N 53°54' E 014°16'0 0.0
2014-Apr-14 07:34N 53°54' E 014°16'0 0.0
2014-Apr-14 06:34N 53°54' E 014°16'0 0.0
2014-Apr-14 05:33N 53°54' E 014°16'0 0.0
2014-Apr-13 22:34N 53°54' E 014°16'0 0.0
2014-Apr-13 21:34N 53°54' E 014°16'0 0.0
2014-Apr-13 20:34N 53°54' E 014°16'0 0.0
2014-Apr-13 19:34N 53°54' E 014°16'0 0.0
2014-Apr-13 18:34N 53°54' E 014°16'0 0.0
2014-Apr-13 17:34N 53°54' E 014°16'0 0.0
2014-Apr-13 16:34N 53°54' E 014°16'0 0.0
2014-Apr-13 15:34N 53°54' E 014°16'0 0.0
2014-Apr-13 14:33N 53°54' E 014°16'0 0.0
2014-Apr-13 13:34N 53°54' E 014°16'0 0.0
2014-Apr-13 12:34N 53°54' E 014°16'0 0.0
2014-Apr-13 11:34N 53°54' E 014°16'0 0.0
2014-Apr-13 10:34N 53°54' E 014°16'0 0.0
2014-Apr-13 09:34N 53°54' E 014°16'0 0.0
2014-Apr-13 08:33N 53°54' E 014°16'0 0.0
2014-Apr-13 07:34N 53°54' E 014°16'0 0.0
2014-Apr-13 06:34N 53°54' E 014°16'0 0.0
2014-Apr-13 05:34N 53°54' E 014°16'0 0.0
2014-Apr-13 04:34N 53°54' E 014°16'0 0.0
2014-Apr-13 03:33N 53°54' E 014°16'0 0.0
2014-Apr-13 02:34N 53°54' E 014°16'0 0.0
2014-Apr-13 01:34N 53°54' E 014°16'0 0.0
2014-Apr-13 00:34N 53°54' E 014°16'0 0.0
2014-Apr-12 23:34N 53°54' E 014°16'0 0.0
2014-Apr-12 22:34N 53°54' E 014°16'0 0.0
2014-Apr-12 21:34N 53°54' E 014°16'0 0.0
2014-Apr-12 20:34N 53°54' E 014°16'0 0.0
2014-Apr-12 19:33N 53°54' E 014°16'0 0.0
2014-Apr-12 18:34N 53°54' E 014°16'0 0.0
2014-Apr-12 17:34N 53°54' E 014°16'0 0.0
2014-Apr-12 16:34N 53°54' E 014°16'0 0.0
2014-Apr-12 15:33N 53°54' E 014°16'0 0.0
2014-Apr-12 14:34N 53°54' E 014°16'0 0.0
2014-Apr-12 13:33N 53°54' E 014°16'0 0.0
2014-Apr-12 12:34N 53°54' E 014°16'0 0.0
2014-Apr-12 11:34N 53°54' E 014°16'0 0.0
2014-Apr-12 10:34N 53°54' E 014°16'0 0.0
2014-Apr-12 09:34N 53°54' E 014°16'0 0.0
2014-Apr-12 08:34N 53°54' E 014°16'0 0.0
2014-Apr-12 07:33N 53°54' E 014°16'0 0.0
2014-Apr-12 06:34N 53°54' E 014°16'0 0.0
2014-Apr-12 05:34N 53°54' E 014°16'0 0.0
2014-Apr-12 04:34N 53°54' E 014°16'0 0.0
2014-Apr-12 03:33N 53°54' E 014°16'0 0.0
2014-Apr-12 02:34N 53°54' E 014°16'0 0.0
2014-Apr-12 01:34N 53°54' E 014°16'0 0.0
2014-Apr-12 00:33N 53°54' E 014°16'0 0.0
2014-Apr-11 23:34N 53°54' E 014°16'0 0.0
2014-Apr-11 22:34N 53°54' E 014°16'0 0.0
2014-Apr-11 21:33N 53°54' E 014°16'0 0.0
2014-Apr-11 20:34N 53°54' E 014°16'0 0.0
2014-Apr-11 19:34N 53°54' E 014°16'0 0.0
2014-Apr-11 18:34N 53°54' E 014°16'0 0.0
2014-Apr-11 17:34N 53°54' E 014°16'0 0.0
2014-Apr-11 16:34N 53°54' E 014°16'0 0.0
2014-Apr-11 15:33N 53°54' E 014°16'0 0.0
2014-Apr-11 14:34N 53°54' E 014°16'0 0.0
2014-Apr-11 13:34N 53°54' E 014°16'0 0.0
2014-Apr-11 12:34N 53°54' E 014°16'0 0.0
2014-Apr-11 11:33N 53°54' E 014°16'0 0.2
2014-Apr-11 10:34N 53°54' E 014°16'0 0.0
2014-Apr-11 09:34N 53°54' E 014°16'0 0.0
2014-Apr-11 08:34N 53°54' E 014°16'0 0.0
2014-Apr-11 07:34N 53°54' E 014°16'0 0.1
2014-Apr-11 06:34N 53°54' E 014°16'0 0.0
2014-Apr-11 05:34N 53°54' E 014°16'0 0.0
2014-Apr-11 04:34N 53°54' E 014°16'  

Dump ship's entire track history

sailing weather and tide predictions

Listerhav — ZDKC7 — position and weather